Time;durP1;ratioP1;P1;durP2;ratioP2;P2;SDS_P1;SDS_P2;PMS_P1;PMS_P2;Temp;Humidity;BMP_temperature;BMP_pressure;BME280_temperature;BME280_humidity;BME280_pressure;Samples;Min_cycle;Max_cycle;Signal;HPM_P1;HPM_P2
2022/12/03 00:02:42;;;;;;;;;;;;;;;;;;;;;
2022/12/03 00:05:50;;;;;;;8.77;6.50;;;5.50;98.50;;;;;;5998356;23;20465;-82
2022/12/03 00:12:17;;;;;;;8.30;6.27;;;5.50;97.90;;;;;;6006671;23;20426;-82
2022/12/03 00:15:19;;;;;;;10.00;6.70;;;5.40;97.60;;;;;;6020890;23;20416;-82
2022/12/03 00:18:23;;;;;;;9.03;6.33;;;5.40;97.70;;;;;;5961366;23;20455;-83
2022/12/03 00:21:20;;;;;;;9.20;7.33;;;5.30;97.60;;;;;;5982799;23;20442;-84
2022/12/03 00:24:16;;;;;;;9.10;6.77;;;5.30;98.00;;;;;;6078193;23;20384;-82
2022/12/03 00:27:20;;;;;;;8.93;6.80;;;5.50;98.00;;;;;;6094785;23;20519;-82
2022/12/03 00:30:56;;;;;;;9.00;6.47;;;5.50;97.70;;;;;;6014488;23;20384;-83
2022/12/03 00:33:48;;;;;;;9.00;5.83;;;5.40;97.80;;;;;;6008922;23;20403;-82
2022/12/03 00:36:41;;;;;;;10.50;6.80;;;5.40;97.50;;;;;;6035325;23;20438;-82
2022/12/03 00:42:45;;;;;;;6.90;5.90;;;5.40;97.50;;;;;;6057513;23;20469;-83
2022/12/03 00:45:46;;;;;;;9.07;5.90;;;5.60;97.30;;;;;;6017094;23;20436;-81
2022/12/03 00:48:23;;;;;;;8.17;6.27;;;5.50;97.30;;;;;;6034567;23;20477;-83
2022/12/03 00:51:32;;;;;;;9.77;6.33;;;5.50;97.60;;;;;;6057907;23;20501;-81
2022/12/03 00:54:16;;;;;;;6.60;5.50;;;5.20;97.40;;;;;;6053898;23;20422;-82
2022/12/03 01:00:01;;;;;;;9.60;6.33;;;5.30;98.00;;;;;;6044566;23;20440;-85
2022/12/03 01:02:45;;;;;;;8.23;5.63;;;5.20;98.00;;;;;;6114314;23;20432;-83
2022/12/03 01:05:20;;;;;;;8.50;6.50;;;5.30;98.20;;;;;;6117260;23;20397;-83
2022/12/03 01:08:26;;;;;;;7.37;5.53;;;5.30;98.20;;;;;;6112831;23;20453;-81
2022/12/03 01:14:33;;;;;;;8.70;5.97;;;5.60;97.90;;;;;;6119490;23;20420;-84
2022/12/03 01:17:02;;;;;;;7.87;5.67;;;5.60;97.50;;;;;;6117855;23;20527;-84
2022/12/03 01:19:41;;;;;;;6.17;5.57;;;5.50;97.40;;;;;;6130692;23;20420;-81
2022/12/03 01:22:28;;;;;;;10.60;6.10;;;5.40;97.80;;;;;;6127426;23;20449;-85
2022/12/03 01:25:24;;;;;;;7.50;6.00;;;5.30;97.90;;;;;;6118393;23;20471;-84
2022/12/03 01:28:23;;;;;;;7.57;6.20;;;5.30;98.10;;;;;;6102044;23;20531;-83
2022/12/03 01:34:40;;;;;;;5.87;4.90;;;5.30;98.10;;;;;;6128481;23;20430;-82
2022/12/03 01:37:09;;;;;;;7.70;5.40;;;5.50;97.70;;;;;;6122399;23;20441;-82
2022/12/03 01:40:12;;;;;;;8.33;5.37;;;5.50;97.50;;;;;;6101446;23;20416;-81
2022/12/03 01:43:04;;;;;;;7.00;6.07;;;5.50;97.40;;;;;;6088548;23;20452;-82
2022/12/03 01:46:14;;;;;;;6.83;5.47;;;5.60;97.10;;;;;;6131661;23;20371;-83
2022/12/03 01:48:56;;;;;;;7.83;6.20;;;5.60;97.00;;;;;;6120894;23;20511;-81
2022/12/03 01:51:41;;;;;;;6.77;5.60;;;5.40;97.00;;;;;;6116144;23;20408;-82
2022/12/03 01:54:42;;;;;;;8.17;6.37;;;5.60;97.60;;;;;;6117832;23;20494;-81
2022/12/03 01:58:00;;;;;;;7.70;6.07;;;5.60;97.30;;;;;;6114469;23;20543;-81
2022/12/03 02:00:58;;;;;;;6.73;5.13;;;5.50;97.40;;;;;;6117958;23;20475;-81
2022/12/03 02:03:33;;;;;;;8.47;6.10;;;5.50;97.50;;;;;;6116387;23;20479;-83
2022/12/03 02:06:27;;;;;;;9.13;5.77;;;5.40;97.70;;;;;;6116172;23;20408;-82
2022/12/03 02:09:26;;;;;;;8.03;6.00;;;5.60;97.90;;;;;;6116060;23;21349;-82
2022/12/03 02:12:06;;;;;;;9.43;6.30;;;5.70;97.20;;;;;;6118390;23;20412;-81
2022/12/03 02:15:22;;;;;;;9.70;6.00;;;5.70;97.20;;;;;;6119450;23;20389;-81
2022/12/03 02:18:30;;;;;;;6.60;5.00;;;5.50;97.30;;;;;;6116563;23;20426;-83
2022/12/03 02:21:52;;;;;;;7.10;5.13;;;5.40;97.60;;;;;;6109812;23;20405;-83
2022/12/03 02:25:13;;;;;;;6.37;5.33;;;5.40;98.00;;;;;;6118434;23;20460;-83
2022/12/03 02:28:19;;;;;;;6.70;5.00;;;5.60;97.70;;;;;;6026984;23;20529;-81
2022/12/03 02:31:21;;;;;;;8.47;6.07;;;5.60;97.30;;;;;;6117720;23;20423;-82
2022/12/03 02:34:48;;;;;;;7.37;5.63;;;5.60;97.30;;;;;;6112662;23;20435;-83
2022/12/03 02:37:40;;;;;;;9.97;6.53;;;5.60;97.50;;;;;;6104508;23;20436;-79
2022/12/03 02:40:54;;;;;;;8.47;5.83;;;5.60;97.60;;;;;;6118084;23;20420;-81
2022/12/03 02:43:46;;;;;;;;;;;;;;;;;;;;;
2022/12/03 02:47:08;;;;;;;;;;;;;;;;;;;;;
2022/12/03 02:50:00;;;;;;;8.23;6.20;;;5.40;98.10;;;;;;6112900;23;20448;-81
2022/12/03 02:56:51;;;;;;;7.20;4.80;;;5.50;98.10;;;;;;6118907;23;20436;-83
2022/12/03 02:59:38;;;;;;;7.30;5.87;;;5.60;97.80;;;;;;6091543;23;20898;-83
2022/12/03 03:02:22;;;;;;;7.60;6.07;;;5.50;97.50;;;;;;6117063;23;20412;-81
2022/12/03 03:04:56;;;;;;;7.73;6.33;;;5.70;97.40;;;;;;6130147;23;20474;-82
2022/12/03 03:11:21;;;;;;;8.50;5.70;;;5.50;97.40;;;;;;6118700;23;20507;-83
2022/12/03 03:14:07;;;;;;;8.60;5.60;;;5.60;97.60;;;;;;6116125;23;20507;-83
2022/12/03 03:16:59;;;;;;;9.53;6.17;;;5.40;97.30;;;;;;6111913;23;21276;-83
2022/12/03 03:20:10;;;;;;;7.67;6.23;;;5.40;97.80;;;;;;6102682;23;21159;-81
2022/12/03 03:23:25;;;;;;;10.57;7.03;;;5.30;97.90;;;;;;6111318;23;20948;-81
2022/12/03 03:26:37;;;;;;;12.30;6.53;;;5.30;98.20;;;;;;6118448;23;20404;-82
2022/12/03 03:29:23;;;;;;;10.30;6.93;;;5.60;97.90;;;;;;6101317;23;21158;-82
2022/12/03 03:32:32;;;;;;;10.17;7.20;;;5.60;98.00;;;;;;6118009;23;20900;-81
2022/12/03 03:35:18;;;;;;;7.53;5.90;;;5.40;97.80;;;;;;6010029;23;20391;-82
2022/12/03 03:38:03;;;;;;;7.93;6.30;;;5.30;98.10;;;;;;6028620;23;20447;-83
2022/12/03 03:41:36;;;;;;;8.90;6.33;;;5.50;98.40;;;;;;6029861;23;20410;-82
2022/12/03 03:44:47;;;;;;;9.20;6.77;;;5.40;98.00;;;;;;6011801;23;20406;-81
2022/12/03 03:47:30;;;;;;;10.10;7.13;;;5.70;98.20;;;;;;5974411;23;20459;-81
2022/12/03 03:53:08;;;;;;;8.10;6.37;;;5.60;98.00;;;;;;6023730;23;20835;-83
2022/12/03 03:56:24;;;;;;;7.50;6.23;;;5.70;97.70;;;;;;6014633;23;20419;-80
2022/12/03 03:59:18;;;;;;;11.27;6.77;;;5.40;97.60;;;;;;6054796;23;20410;-81
2022/12/03 04:02:00;;;;;;;9.23;7.30;;;5.30;98.00;;;;;;6042045;23;20423;-81
2022/12/03 04:04:52;;;;;;;;;;;;;;;;;;;;;
2022/12/03 04:07:38;;;;;;;8.37;6.63;;;5.50;98.20;;;;;;6030557;23;20457;-83
2022/12/03 04:13:50;;;;;;;12.13;7.50;;;5.30;98.00;;;;;;6107311;23;20419;-85
2022/12/03 04:16:41;;;;;;;12.27;7.63;;;5.50;98.10;;;;;;6118658;23;20440;-83
2022/12/03 04:19:34;;;;;;;10.60;7.07;;;5.80;97.60;;;;;;6116377;23;20952;-83
2022/12/03 04:28:51;;;;;;;11.10;8.30;;;5.60;97.50;;;;;;6125022;23;20442;-83
2022/12/03 04:37:34;;;;;;;11.37;7.20;;;5.40;97.70;;;;;;6119784;23;20439;-83
2022/12/03 04:46:51;;;;;;;12.03;7.77;;;5.50;97.10;;;;;;6117974;23;20448;-82
2022/12/03 04:49:40;;;;;;;9.90;6.93;;;5.40;97.50;;;;;;6118512;23;20530;-83
2022/12/03 04:52:34;;;;;;;10.63;7.30;;;5.20;97.80;;;;;;6120571;23;20441;-82
2022/12/03 04:55:21;;;;;;;11.57;8.47;;;5.40;97.90;;;;;;6119798;23;20534;-83
2022/12/03 04:58:13;;;;;;;10.67;7.27;;;5.40;97.80;;;;;;6121288;23;20439;-84
2022/12/03 05:01:15;;;;;;;11.67;7.77;;;5.40;97.70;;;;;;6126226;23;20498;-84
2022/12/03 05:03:52;;;;;;;12.90;7.70;;;5.40;97.60;;;;;;6118131;23;20428;-84
2022/12/03 05:06:42;;;;;;;11.43;8.17;;;5.50;97.40;;;;;;6054322;23;20416;-83
2022/12/03 05:09:37;;;;;;;11.03;7.30;;;5.50;97.10;;;;;;6118445;23;20765;-82
2022/12/03 05:12:21;;;;;;;12.50;7.90;;;5.40;97.20;;;;;;6118339;23;20458;-83
2022/12/03 05:15:20;;;;;;;13.70;8.97;;;5.20;97.50;;;;;;6035366;23;20386;-82
2022/12/03 05:18:07;;;;;;;14.50;7.07;;;5.30;98.00;;;;;;6037371;23;20865;-83
2022/12/03 05:20:54;;;;;;;11.60;7.97;;;5.30;98.00;;;;;;6039364;23;20465;-83
2022/12/03 05:27:01;;;;;;;12.30;7.10;;;5.50;97.90;;;;;;5946608;24;21282;-84
2022/12/03 05:30:11;;;;;;;11.77;7.97;;;5.50;97.70;;;;;;5923955;23;20452;-83
2022/12/03 05:33:43;;;;;;;9.63;6.97;;;5.50;97.80;;;;;;5948650;24;20396;-83
2022/12/03 05:36:30;;;;;;;13.20;6.90;;;5.50;97.30;;;;;;5940636;24;20421;-83
2022/12/03 05:40:18;;;;;;;10.60;7.27;;;5.30;97.30;;;;;;5966897;24;20462;-81
2022/12/03 05:43:29;;;;;;;12.77;6.93;;;5.30;97.00;;;;;;5966607;24;20449;-82
2022/12/03 05:48:59;;;;;;;8.40;6.07;;;5.30;97.00;;;;;;6160976;23;21041;-82
2022/12/03 05:51:53;;;;;;;9.17;6.37;;;5.30;96.80;;;;;;6038680;23;21583;-83
2022/12/03 05:54:45;;;;;;;8.80;6.00;;;5.50;96.60;;;;;;6044443;23;20410;-81
2022/12/03 05:57:40;;;;;;;7.30;6.03;;;5.60;96.40;;;;;;6036308;23;20448;-82
2022/12/03 06:03:46;;;;;;;9.57;6.77;;;5.30;95.60;;;;;;6037553;23;20785;-82
2022/12/03 06:06:36;;;;;;;9.47;6.77;;;5.30;96.20;;;;;;6056744;23;20473;-83
2022/12/03 06:09:20;;;;;;;10.10;6.20;;;5.40;96.20;;;;;;6058877;23;20482;-84
2022/12/03 06:11:58;;;;;;;9.10;6.80;;;5.50;96.20;;;;;;6125603;23;20419;-83
2022/12/03 06:14:30;;;;;;;7.00;5.17;;;5.30;95.80;;;;;;6126279;23;20415;-82
2022/12/03 06:17:20;;;;;;;7.87;4.87;;;5.20;96.20;;;;;;6129286;23;20589;-83
2022/12/03 06:19:59;;;;;;;10.10;6.00;;;5.30;96.00;;;;;;6142548;23;20438;-81
2022/12/03 06:23:17;;;;;;;;;;;;;;;;;;;;;
2022/12/03 06:26:29;;;;;;;11.20;6.80;;;5.20;96.30;;;;;;6169386;23;20410;-82
2022/12/03 06:29:49;;;;;;;;;;;;;;;;;;;;;
2022/12/03 06:32:39;;;;;;;9.97;6.17;;;5.10;96.80;;;;;;6110143;23;20986;-83
2022/12/03 06:35:24;;;;;;;11.80;7.00;;;5.40;96.50;;;;;;6125536;23;20411;-85
2022/12/03 06:38:50;;;;;;;10.00;7.00;;;5.30;96.60;;;;;;6128275;23;20398;-85
2022/12/03 06:41:44;;;;;;;11.60;8.57;;;5.10;96.90;;;;;;6124004;23;20748;-83
2022/12/03 06:44:37;;;;;;;11.80;7.77;;;5.20;97.20;;;;;;6119918;23;20793;-82
2022/12/03 06:47:31;;;;;;;11.27;7.33;;;5.50;97.20;;;;;;6107250;23;20963;-84
2022/12/03 06:50:10;;;;;;;12.03;7.27;;;5.40;96.90;;;;;;6128202;23;20521;-84
2022/12/03 06:52:59;;;;;;;11.77;7.63;;;5.30;97.10;;;;;;6129516;23;20439;-83
2022/12/03 06:55:34;;;;;;;11.60;7.40;;;5.30;97.70;;;;;;6149448;23;20655;-83
2022/12/03 06:58:34;;;;;;;10.33;7.40;;;5.20;98.00;;;;;;6126573;23;20372;-84
2022/12/03 07:01:30;;;;;;;11.80;7.20;;;5.30;98.30;;;;;;6147116;23;20403;-83
2022/12/03 07:04:22;;;;;;;11.77;7.23;;;5.20;98.50;;;;;;6146331;23;20422;-82
2022/12/03 07:06:51;;;;;;;13.37;8.20;;;5.10;98.70;;;;;;6119592;23;20875;-85
2022/12/03 07:09:40;;;;;;;12.93;7.80;;;5.10;98.60;;;;;;6121353;23;20482;-82
2022/12/03 07:12:40;;;;;;;10.63;7.57;;;5.10;98.70;;;;;;6109024;23;20408;-82
2022/12/03 07:15:24;;;;;;;10.90;7.53;;;5.20;98.70;;;;;;6147066;23;20435;-84
2022/12/03 07:18:06;;;;;;;12.10;7.80;;;5.30;98.60;;;;;;6116976;23;20989;-84
2022/12/03 07:20:52;;;;;;;11.03;7.60;;;5.20;98.60;;;;;;6123513;23;20425;-84
2022/12/03 07:23:24;;;;;;;13.53;8.17;;;5.40;98.50;;;;;;6120294;23;20438;-83
2022/12/03 07:26:32;;;;;;;11.03;6.53;;;5.30;98.40;;;;;;6127084;23;20754;-83
2022/12/03 07:29:07;;;;;;;11.27;7.00;;;5.40;98.40;;;;;;6093481;23;20426;-84
2022/12/03 07:31:58;;;;;;;9.33;6.20;;;5.50;98.30;;;;;;6070193;23;20413;-83
2022/12/03 07:34:42;;;;;;;10.40;6.00;;;5.30;98.20;;;;;;6079959;23;21136;-82
2022/12/03 07:38:07;;;;;;;11.07;6.77;;;5.50;98.30;;;;;;6105134;23;20416;-83
2022/12/03 07:45:40;;;;;;;9.60;6.53;;;5.30;98.10;;;;;;5888480;24;20479;-84
2022/12/03 07:53:13;;;;;;;10.43;7.00;;;5.40;98.50;;;;;;5889168;24;20447;-82
2022/12/03 07:56:44;;;;;;;;;;;;;;;;;;;;;
2022/12/03 07:59:37;;;;;;;10.60;6.70;;;5.40;98.10;;;;;;5834357;24;20492;-83
2022/12/03 08:09:34;;;;;;;10.80;6.93;;;5.30;98.40;;;;;;6144678;23;20464;-84
2022/12/03 08:13:01;;;;;;;9.57;6.63;;;5.30;98.50;;;;;;6011066;23;20513;-84
2022/12/03 08:24:23;;;;;;;;;;;;;;;;;;;;;
2022/12/03 08:28:25;;;;;;;;;;;;;;;;;;;;;
2022/12/03 08:35:59;;;;;;;10.77;7.13;;;5.50;97.20;;;;;;6055824;23;20415;-84
2022/12/03 08:47:23;;;;;;;10.63;6.83;;;5.40;97.50;;;;;;6144845;23;20498;-82
2022/12/03 08:54:24;;;;;;;;;;;;;;;;;;;;;
2022/12/03 08:57:56;;;;;;;;;;;;;;;;;;;;;
2022/12/03 09:01:25;;;;;;;10.50;6.13;;;5.30;97.60;;;;;;5998140;23;20913;-83
2022/12/03 09:09:23;;;;;;;12.17;6.60;;;5.20;97.20;;;;;;5792775;24;20430;-83
2022/12/03 09:12:40;;;;;;;9.30;5.93;;;5.10;97.60;;;;;;5880203;24;20424;-83
2022/12/03 09:23:00;;;;;;;12.03;7.07;;;5.40;97.20;;;;;;6100559;23;20394;-84
2022/12/03 09:41:30;;;;;;;10.77;6.70;;;5.50;97.30;;;;;;6131593;23;20403;-82
2022/12/03 09:45:01;;;;;;;12.17;7.13;;;5.50;96.50;;;;;;5959679;24;20511;-80
2022/12/03 10:10:47;;;;;;;9.40;5.67;;;5.50;96.20;;;;;;5930830;23;20469;-82
2022/12/03 10:21:15;;;;;;;9.70;7.23;;;5.50;97.00;;;;;;6078235;23;20416;-82
2022/12/03 10:24:31;;;;;;;10.43;5.93;;;5.80;97.00;;;;;;6148829;23;20440;-82
2022/12/03 10:31:59;;;;;;;8.27;5.47;;;5.70;96.40;;;;;;6132950;23;20410;-83
2022/12/03 10:35:31;;;;;;;;;;;;;;;;;;;;;
2022/12/03 10:38:51;;;;;;;12.20;7.20;;;5.90;96.10;;;;;;6053855;23;20477;-82
2022/12/03 10:42:12;;;;;;;9.23;6.87;;;5.80;95.90;;;;;;5970598;24;20461;-81
2022/12/03 10:45:41;;;;;;;9.40;6.20;;;5.60;95.70;;;;;;6048629;23;20372;-83
2022/12/03 12:39:20;;;;;;;;;;;;;;;;;;;;;
2022/12/03 14:01:55;;;;;;;;;;;;;;;;;;;;;
2022/12/03 14:35:55;;;;;;;18.93;11.47;;;5.90;95.90;;;;;;6196089;23;20465;-82
2022/12/03 15:04:21;;;;;;;;;;;;;;;;;;;;;
2022/12/03 15:07:56;;;;;;;;;;;;;;;;;;;;;
2022/12/03 15:11:58;;;;;;;;;;;;;;;;;;;;;
2022/12/03 15:42:17;;;;;;;;;;;;;;;;;;;;;
2022/12/03 15:49:55;;;;;;;;;;;;;;;;;;;;;
2022/12/03 16:04:27;;;;;;;;;;;;;;;;;;;;;
2022/12/03 16:48:27;;;;;;;18.50;12.23;;;5.80;97.10;;;;;;6185242;23;20528;-85
2022/12/03 16:55:31;;;;;;;23.30;12.80;;;5.80;97.00;;;;;;6185074;23;20509;-83
2022/12/03 16:59:13;;;;;;;;;;;;;;;;;;;;;
2022/12/03 17:03:07;;;;;;;20.90;11.57;;;5.80;97.30;;;;;;6061413;23;20411;-83
2022/12/03 17:32:41;;;;;;;15.60;10.00;;;5.50;97.20;;;;;;5836611;24;20441;-82
2022/12/03 17:51:20;;;;;;;17.27;10.60;;;5.60;97.00;;;;;;5897719;24;20400;-83
2022/12/03 17:54:54;;;;;;;;;;;;;;;;;;;;;
2022/12/03 18:56:54;;;;;;;;;;;;;;;;;;;;;
2022/12/03 19:23:40;;;;;;;15.33;9.90;;;5.60;96.70;;;;;;5877947;24;20394;-83
2022/12/03 21:31:00;;;;;;;;;;;;;;;;;;;;;
2022/12/03 21:44:15;;;;;;;14.40;10.27;;;5.40;97.60;;;;;;6234172;22;20455;-86
2022/12/03 22:25:40;;;;;;;19.17;10.77;;;5.30;98.10;;;;;;6102546;23;20440;-82
2022/12/03 23:03:05;;;;;;;;;;;;;;;;;;;;;
